Time;durP1;ratioP1;P1;durP2;ratioP2;P2;SDS_P1;SDS_P2;PMS_P1;PMS_P2;Temp;Humidity;BMP_temperature;BMP_pressure;BME280_temperature;BME280_humidity;BME280_pressure;Samples;Min_cycle;Max_cycle;Signal;HPM_P1;HPM_P2
2023/04/07 00:02:18;;;;;;;10.50;7.30;;;;;;;2.06;100.00;99064.71;107837;1308;22946;-40
2023/04/07 00:04:43;;;;;;;8.30;6.30;;;;;;;2.11;100.00;99065.29;107850;1308;22285;-40
2023/04/07 00:07:08;;;;;;;8.40;6.10;;;;;;;2.11;100.00;99061.46;107858;1308;22250;-40
2023/04/07 00:09:34;;;;;;;10.50;6.60;;;;;;;2.10;100.00;99060.80;107815;1308;22261;-40
2023/04/07 00:12:01;;;;;;;8.80;7.10;;;;;;;2.08;100.00;99060.02;107831;1308;22225;-40
2023/04/07 00:14:27;;;;;;;7.90;5.90;;;;;;;2.04;100.00;99060.08;107828;1308;23356;-40
2023/04/07 00:16:53;;;;;;;13.80;6.80;;;;;;;1.89;100.00;99060.12;107469;1308;22139;-40
2023/04/07 00:19:18;;;;;;;10.80;7.00;;;;;;;1.87;100.00;99055.83;107857;1308;22967;-40
2023/04/07 00:21:44;;;;;;;10.20;6.40;;;;;;;1.89;100.00;99054.74;107836;1308;22189;-39
2023/04/07 00:24:09;;;;;;;9.30;5.70;;;;;;;1.86;100.00;99051.52;107836;1308;22218;-40
2023/04/07 00:26:34;;;;;;;10.40;6.60;;;;;;;1.86;100.00;99049.63;107848;1308;22979;-39
2023/04/07 00:29:00;;;;;;;7.40;6.20;;;;;;;1.85;100.00;99047.58;107850;1308;22254;-39
2023/04/07 00:31:25;;;;;;;8.60;6.40;;;;;;;1.92;100.00;99047.60;107826;1308;23109;-39
2023/04/07 00:33:51;;;;;;;6.40;5.10;;;;;;;1.94;100.00;99046.17;107804;1308;22212;-39
2023/04/07 00:36:16;;;;;;;8.30;5.90;;;;;;;1.98;100.00;99047.79;107828;1308;24129;-39
2023/04/07 00:38:41;;;;;;;6.30;4.90;;;;;;;1.92;100.00;99046.90;107855;1308;23217;-40
2023/04/07 00:41:07;;;;;;;10.20;6.50;;;;;;;1.91;100.00;99049.34;107825;1308;22319;-39
2023/04/07 00:43:32;;;;;;;15.80;9.80;;;;;;;1.87;100.00;99043.90;107805;1308;22219;-40
2023/04/07 00:45:57;;;;;;;10.70;7.20;;;;;;;1.90;100.00;99044.34;107842;1308;23390;-40
2023/04/07 00:48:23;;;;;;;8.70;6.70;;;;;;;1.89;100.00;99046.27;107844;1308;22276;-39
2023/04/07 00:50:48;;;;;;;9.60;6.50;;;;;;;1.94;100.00;99040.11;107826;1308;22240;-39
2023/04/07 00:53:14;;;;;;;9.00;6.60;;;;;;;1.94;100.00;99035.79;107856;1308;22377;-39
2023/04/07 00:55:40;;;;;;;10.50;6.50;;;;;;;1.91;100.00;99031.36;107844;1308;22935;-40
2023/04/07 00:58:05;;;;;;;11.30;7.00;;;;;;;1.90;100.00;99031.38;107842;1308;22212;-40
2023/04/07 01:00:34;;;;;;;8.80;6.90;;;;;;;1.91;100.00;99029.96;107813;1308;22223;-39
2023/04/07 01:03:10;;;;;;;12.70;7.00;;;;;;;1.94;100.00;99028.01;107826;1308;22386;-40
2023/04/07 01:05:45;;;;;;;7.80;6.40;;;;;;;1.92;100.00;99027.00;107841;1308;22661;-40
2023/04/07 01:08:23;;;;;;;9.50;6.90;;;;;;;1.84;100.00;99021.66;107839;1308;22248;-40
2023/04/07 01:10:59;;;;;;;11.90;6.90;;;;;;;1.84;100.00;99022.71;107837;1308;23215;-40
2023/04/07 01:13:25;;;;;;;8.60;6.10;;;;;;;1.83;100.00;99020.50;107830;1308;22287;-41
2023/04/07 01:15:55;;;;;;;9.00;6.40;;;;;;;1.89;100.00;99017.06;107850;1308;22140;-40
2023/04/07 01:18:25;;;;;;;10.00;6.20;;;;;;;1.93;100.00;99014.20;107850;1308;22441;-40
2023/04/07 01:20:54;;;;;;;9.50;6.20;;;;;;;1.95;100.00;99012.44;107836;1308;23005;-40
2023/04/07 01:23:38;;;;;;;8.30;6.00;;;;;;;1.89;100.00;99014.80;107830;1308;22229;-40
2023/04/07 01:26:16;;;;;;;9.70;5.40;;;;;;;1.89;100.00;99015.85;107867;1308;22241;-40
2023/04/07 01:29:00;;;;;;;9.90;6.30;;;;;;;1.84;100.00;99012.16;107842;1308;22940;-41
2023/04/07 01:31:26;;;;;;;7.20;5.50;;;;;;;1.93;100.00;99014.20;107839;1308;22242;-39
2023/04/07 01:33:54;;;;;;;8.00;5.40;;;;;;;1.97;100.00;99012.89;107838;1308;22227;-39
2023/04/07 01:36:21;;;;;;;9.10;5.90;;;;;;;1.98;100.00;99012.70;107833;1308;22845;-39
2023/04/07 01:38:49;;;;;;;7.80;6.40;;;;;;;1.99;100.00;99011.80;107843;1308;22242;-40
2023/04/07 01:41:16;;;;;;;10.90;6.60;;;;;;;2.01;100.00;99012.63;107849;1308;22223;-40
2023/04/07 01:43:42;;;;;;;10.30;6.50;;;;;;;1.95;100.00;99010.85;107850;1308;22463;-40
2023/04/07 01:46:08;;;;;;;10.30;6.50;;;;;;;1.96;100.00;99009.83;107836;1308;23347;-40
2023/04/07 01:48:34;;;;;;;7.20;6.00;;;;;;;1.99;100.00;99010.44;107834;1308;22555;-40
2023/04/07 01:51:00;;;;;;;7.40;6.60;;;;;;;2.05;100.00;99003.02;107851;1308;22230;-40
2023/04/07 01:53:26;;;;;;;9.00;6.00;;;;;;;2.05;100.00;99007.35;107849;1308;22404;-40
2023/04/07 01:55:53;;;;;;;8.90;6.60;;;;;;;2.08;100.00;99006.73;107831;1308;22225;-41
2023/04/07 01:58:18;;;;;;;9.50;6.40;;;;;;;2.10;100.00;99001.50;107517;1308;22231;-39
2023/04/07 02:00:44;;;;;;;7.30;5.50;;;;;;;2.16;100.00;98998.23;107831;1308;22278;-39
2023/04/07 02:03:19;;;;;;;9.30;6.70;;;;;;;2.19;100.00;98990.52;107851;1308;22381;-40
2023/04/07 02:05:47;;;;;;;8.80;6.40;;;;;;;2.23;100.00;98992.84;107704;1308;22395;-40
2023/04/07 02:08:15;;;;;;;;;;;;;;;2.29;100.00;98990.27;107707;1308;22408;-39
2023/04/07 02:10:41;;;;;;;8.40;6.40;;;;;;;2.30;100.00;98989.77;107840;1308;22597;-39
2023/04/07 02:13:12;;;;;;;10.20;7.30;;;;;;;2.16;100.00;98989.77;107861;1308;22209;-39
2023/04/07 02:15:39;;;;;;;9.10;6.80;;;;;;;2.19;100.00;98990.00;107877;1307;22211;-39
2023/04/07 02:18:09;;;;;;;13.00;7.30;;;;;;;2.24;100.00;98989.38;108015;1307;22301;-40
2023/04/07 02:20:36;;;;;;;11.30;7.70;;;;;;;2.20;100.00;98989.13;108002;1307;22208;-40
2023/04/07 02:23:02;;;;;;;11.60;8.10;;;;;;;2.20;100.00;98987.91;107983;1307;23008;-40
2023/04/07 02:25:29;;;;;;;12.50;8.10;;;;;;;2.23;100.00;98987.31;108012;1307;22204;-39
2023/04/07 02:27:56;;;;;;;10.30;7.00;;;;;;;2.23;100.00;98989.21;107986;1307;22215;-39
2023/04/07 02:30:23;;;;;;;13.40;9.40;;;;;;;2.20;100.00;98988.26;107978;1307;22246;-39
2023/04/07 02:32:48;;;;;;;10.80;8.40;;;;;;;2.18;100.00;98986.23;108001;1307;22409;-39
2023/04/07 02:35:14;;;;;;;13.10;9.30;;;;;;;2.21;100.00;98986.69;107719;1307;22947;-39
2023/04/07 02:37:40;;;;;;;12.80;8.70;;;;;;;2.27;100.00;98985.66;107995;1307;22458;-39
2023/04/07 02:40:06;;;;;;;13.30;8.40;;;;;;;2.26;100.00;98984.82;108004;1307;22215;-39
2023/04/07 02:42:31;;;;;;;12.70;9.20;;;;;;;2.20;100.00;98983.77;108017;1307;23221;-40
2023/04/07 02:44:57;;;;;;;14.60;9.10;;;;;;;2.22;100.00;98979.91;108691;1300;22825;-39
2023/04/07 02:49:13;;;;;;;11.00;8.20;;;;;;;2.24;100.00;98982.80;106893;1296;544889;-38
2023/04/07 02:51:38;;;;;;;15.60;10.00;;;;;;;2.21;100.00;98985.48;107417;1305;22225;-40
2023/04/07 02:54:04;;;;;;;15.00;9.80;;;;;;;2.22;100.00;98986.31;107504;1312;22414;-39
2023/04/07 02:56:30;;;;;;;13.30;10.10;;;;;;;2.20;100.00;98981.35;107503;1312;22938;-40
2023/04/07 02:58:55;;;;;;;10.80;8.80;;;;;;;2.24;100.00;98981.94;107505;1312;22246;-39
2023/04/07 03:01:20;;;;;;;13.40;9.40;;;;;;;2.11;100.00;98979.86;107491;1312;22249;-40
2023/04/07 03:03:46;;;;;;;14.00;9.90;;;;;;;2.14;100.00;98982.38;107860;1307;134125;-40
2023/04/07 03:06:12;;;;;;;12.30;8.60;;;;;;;2.14;100.00;98983.23;108023;1307;22241;-39
2023/04/07 03:08:37;;;;;;;13.80;9.80;;;;;;;2.16;100.00;98981.98;108041;1306;22428;-39
2023/04/07 03:11:03;;;;;;;14.40;9.60;;;;;;;2.17;100.00;98985.75;108029;1306;23530;-40
